sensor_id;sensor_type;location;lat;lon;timestamp;temperature;humidity
58339;DHT22;48278;52.704;6.536;2022-07-22T00:01:26;15.70;99.90
58339;DHT22;48278;52.704;6.536;2022-07-22T00:03:52;15.70;99.90
58339;DHT22;48278;52.704;6.536;2022-07-22T00:06:18;15.70;99.90
58339;DHT22;48278;52.704;6.536;2022-07-22T00:08:44;15.70;99.90
58339;DHT22;48278;52.704;6.536;2022-07-22T00:11:09;15.70;99.90
58339;DHT22;48278;52.704;6.536;2022-07-22T00:13:35;15.70;99.90
58339;DHT22;48278;52.704;6.536;2022-07-22T00:16:01;15.80;99.90
58339;DHT22;48278;52.704;6.536;2022-07-22T00:18:27;15.80;99.90
58339;DHT22;48278;52.704;6.536;2022-07-22T00:20:54;15.80;99.90
58339;DHT22;48278;52.704;6.536;2022-07-22T00:23:20;15.80;99.90
58339;DHT22;48278;52.704;6.536;2022-07-22T00:25:46;15.80;99.90
58339;DHT22;48278;52.704;6.536;2022-07-22T00:28:11;15.90;99.90
58339;DHT22;48278;52.704;6.536;2022-07-22T00:30:37;15.90;99.90
58339;DHT22;48278;52.704;6.536;2022-07-22T00:33:03;15.90;99.90
58339;DHT22;48278;52.704;6.536;2022-07-22T00:35:29;15.90;99.90
58339;DHT22;48278;52.704;6.536;2022-07-22T00:37:55;15.90;99.90
58339;DHT22;48278;52.704;6.536;2022-07-22T00:40:20;15.90;99.90
58339;DHT22;48278;52.704;6.536;2022-07-22T00:42:46;15.90;99.90
58339;DHT22;48278;52.704;6.536;2022-07-22T00:45:12;15.90;99.90
58339;DHT22;48278;52.704;6.536;2022-07-22T00:47:38;15.90;99.90
58339;DHT22;48278;52.704;6.536;2022-07-22T00:50:04;15.90;99.90
58339;DHT22;48278;52.704;6.536;2022-07-22T00:52:32;15.90;99.90
58339;DHT22;48278;52.704;6.536;2022-07-22T00:54:59;15.90;99.90
58339;DHT22;48278;52.704;6.536;2022-07-22T00:57:25;15.90;99.90
58339;DHT22;48278;52.704;6.536;2022-07-22T00:59:51;15.90;99.90
58339;DHT22;48278;52.704;6.536;2022-07-22T01:02:16;15.90;99.90
58339;DHT22;48278;52.704;6.536;2022-07-22T01:04:42;15.90;99.90
58339;DHT22;48278;52.704;6.536;2022-07-22T01:07:08;15.90;99.90
58339;DHT22;48278;52.704;6.536;2022-07-22T01:09:34;15.80;99.90
58339;DHT22;48278;52.704;6.536;2022-07-22T01:12:01;15.80;99.90
58339;DHT22;48278;52.704;6.536;2022-07-22T01:14:26;15.80;99.90
58339;DHT22;48278;52.704;6.536;2022-07-22T01:16:52;15.80;99.90
58339;DHT22;48278;52.704;6.536;2022-07-22T01:19:18;15.80;99.90
58339;DHT22;48278;52.704;6.536;2022-07-22T01:21:46;15.80;99.90
58339;DHT22;48278;52.704;6.536;2022-07-22T01:24:12;15.80;99.90
58339;DHT22;48278;52.704;6.536;2022-07-22T01:26:38;15.90;99.90
58339;DHT22;48278;52.704;6.536;2022-07-22T01:29:04;15.80;99.90
58339;DHT22;48278;52.704;6.536;2022-07-22T01:31:29;15.80;99.90
58339;DHT22;48278;52.704;6.536;2022-07-22T01:33:55;15.80;99.90
58339;DHT22;48278;52.704;6.536;2022-07-22T01:36:21;15.80;99.90
58339;DHT22;48278;52.704;6.536;2022-07-22T01:38:47;15.80;99.90
58339;DHT22;48278;52.704;6.536;2022-07-22T01:41:13;15.70;99.90
58339;DHT22;48278;52.704;6.536;2022-07-22T01:43:39;15.70;99.90
58339;DHT22;48278;52.704;6.536;2022-07-22T01:46:05;15.60;99.90
58339;DHT22;48278;52.704;6.536;2022-07-22T01:48:31;15.60;99.90
58339;DHT22;48278;52.704;6.536;2022-07-22T01:50:57;15.60;99.90
58339;DHT22;48278;52.704;6.536;2022-07-22T01:53:23;15.60;99.90
58339;DHT22;48278;52.704;6.536;2022-07-22T01:55:49;15.60;99.90
58339;DHT22;48278;52.704;6.536;2022-07-22T01:58:15;15.60;99.90
58339;DHT22;48278;52.704;6.536;2022-07-22T02:00:41;15.60;99.90
58339;DHT22;48278;52.704;6.536;2022-07-22T02:03:08;15.60;99.90
58339;DHT22;48278;52.704;6.536;2022-07-22T02:05:36;15.60;99.90
58339;DHT22;48278;52.704;6.536;2022-07-22T02:08:08;15.70;99.90
58339;DHT22;48278;52.704;6.536;2022-07-22T02:10:34;15.70;99.90
58339;DHT22;48278;52.704;6.536;2022-07-22T02:13:00;15.70;99.90
58339;DHT22;48278;52.704;6.536;2022-07-22T02:15:27;15.70;99.90
58339;DHT22;48278;52.704;6.536;2022-07-22T02:17:53;15.70;99.90
58339;DHT22;48278;52.704;6.536;2022-07-22T02:20:20;15.70;99.90
58339;DHT22;48278;52.704;6.536;2022-07-22T02:22:45;15.70;99.90
58339;DHT22;48278;52.704;6.536;2022-07-22T02:25:11;15.70;99.90
58339;DHT22;48278;52.704;6.536;2022-07-22T02:27:37;15.70;99.90
58339;DHT22;48278;52.704;6.536;2022-07-22T02:30:05;15.70;99.90
58339;DHT22;48278;52.704;6.536;2022-07-22T02:32:31;15.70;99.90
58339;DHT22;48278;52.704;6.536;2022-07-22T02:34:57;15.70;99.90
58339;DHT22;48278;52.704;6.536;2022-07-22T02:37:23;15.70;99.90
58339;DHT22;48278;52.704;6.536;2022-07-22T02:39:48;15.70;99.90
58339;DHT22;48278;52.704;6.536;2022-07-22T02:42:14;15.70;99.90
58339;DHT22;48278;52.704;6.536;2022-07-22T02:44:40;15.70;99.90
58339;DHT22;48278;52.704;6.536;2022-07-22T02:47:06;15.60;99.90
58339;DHT22;48278;52.704;6.536;2022-07-22T02:49:33;15.70;99.90
58339;DHT22;48278;52.704;6.536;2022-07-22T02:51:59;15.70;99.90
58339;DHT22;48278;52.704;6.536;2022-07-22T02:54:26;15.60;99.90
58339;DHT22;48278;52.704;6.536;2022-07-22T02:56:52;15.60;99.90
58339;DHT22;48278;52.704;6.536;2022-07-22T02:59:17;15.60;99.90
58339;DHT22;48278;52.704;6.536;2022-07-22T03:01:44;15.70;99.90
58339;DHT22;48278;52.704;6.536;2022-07-22T03:04:09;15.70;99.90
58339;DHT22;48278;52.704;6.536;2022-07-22T03:06:36;15.70;99.90
58339;DHT22;48278;52.704;6.536;2022-07-22T03:09:01;15.60;99.90
58339;DHT22;48278;52.704;6.536;2022-07-22T03:11:27;15.60;99.90
58339;DHT22;48278;52.704;6.536;2022-07-22T03:13:53;15.60;99.90
58339;DHT22;48278;52.704;6.536;2022-07-22T03:16:18;15.70;99.90
58339;DHT22;48278;52.704;6.536;2022-07-22T03:18:44;15.70;99.90
58339;DHT22;48278;52.704;6.536;2022-07-22T03:21:10;15.70;99.90
58339;DHT22;48278;52.704;6.536;2022-07-22T03:23:36;15.70;99.90
58339;DHT22;48278;52.704;6.536;2022-07-22T03:26:01;15.70;99.90
58339;DHT22;48278;52.704;6.536;2022-07-22T03:28:27;15.70;99.90
58339;DHT22;48278;52.704;6.536;2022-07-22T03:30:53;15.60;99.90
58339;DHT22;48278;52.704;6.536;2022-07-22T03:33:19;15.70;99.90
58339;DHT22;48278;52.704;6.536;2022-07-22T03:35:45;15.70;99.90
58339;DHT22;48278;52.704;6.536;2022-07-22T03:38:11;15.70;99.90
58339;DHT22;48278;52.704;6.536;2022-07-22T03:40:36;15.70;99.90
58339;DHT22;48278;52.704;6.536;2022-07-22T03:43:02;15.70;99.90
58339;DHT22;48278;52.704;6.536;2022-07-22T03:45:28;15.70;99.90
58339;DHT22;48278;52.704;6.536;2022-07-22T03:47:54;15.70;99.90
58339;DHT22;48278;52.704;6.536;2022-07-22T03:50:24;15.60;99.90
58339;DHT22;48278;52.704;6.536;2022-07-22T03:52:49;15.60;99.90
58339;DHT22;48278;52.704;6.536;2022-07-22T03:55:15;15.70;99.90
58339;DHT22;48278;52.704;6.536;2022-07-22T03:57:41;15.70;99.90
58339;DHT22;48278;52.704;6.536;2022-07-22T04:00:07;15.70;99.90
58339;DHT22;48278;52.704;6.536;2022-07-22T04:02:33;15.70;99.90
58339;DHT22;48278;52.704;6.536;2022-07-22T04:04:59;15.70;99.90
58339;DHT22;48278;52.704;6.536;2022-07-22T04:07:24;15.70;99.90
58339;DHT22;48278;52.704;6.536;2022-07-22T04:09:50;15.70;99.90
58339;DHT22;48278;52.704;6.536;2022-07-22T04:12:16;15.70;99.90
58339;DHT22;48278;52.704;6.536;2022-07-22T04:14:41;15.70;99.90
58339;DHT22;48278;52.704;6.536;2022-07-22T04:17:07;15.80;99.90
58339;DHT22;48278;52.704;6.536;2022-07-22T04:19:33;15.70;99.90
58339;DHT22;48278;52.704;6.536;2022-07-22T04:21:59;15.70;99.90
58339;DHT22;48278;52.704;6.536;2022-07-22T04:24:24;15.70;99.90
58339;DHT22;48278;52.704;6.536;2022-07-22T04:26:50;15.80;99.90
58339;DHT22;48278;52.704;6.536;2022-07-22T04:29:16;15.70;99.90
58339;DHT22;48278;52.704;6.536;2022-07-22T04:31:41;15.80;99.90
58339;DHT22;48278;52.704;6.536;2022-07-22T04:34:07;15.80;99.90
58339;DHT22;48278;52.704;6.536;2022-07-22T04:36:33;15.80;99.90
58339;DHT22;48278;52.704;6.536;2022-07-22T04:38:58;15.80;99.90
58339;DHT22;48278;52.704;6.536;2022-07-22T04:41:24;15.90;99.90
58339;DHT22;48278;52.704;6.536;2022-07-22T04:43:50;15.80;99.90
58339;DHT22;48278;52.704;6.536;2022-07-22T04:46:16;15.90;99.90
58339;DHT22;48278;52.704;6.536;2022-07-22T04:48:42;15.90;99.90
58339;DHT22;48278;52.704;6.536;2022-07-22T04:51:07;15.90;99.90
58339;DHT22;48278;52.704;6.536;2022-07-22T04:53:33;15.90;99.90
58339;DHT22;48278;52.704;6.536;2022-07-22T04:55:59;15.90;99.90
58339;DHT22;48278;52.704;6.536;2022-07-22T04:58:25;15.90;99.90
58339;DHT22;48278;52.704;6.536;2022-07-22T05:00:50;15.90;99.90
58339;DHT22;48278;52.704;6.536;2022-07-22T05:03:16;15.90;99.90
58339;DHT22;48278;52.704;6.536;2022-07-22T05:05:42;16.00;99.90
58339;DHT22;48278;52.704;6.536;2022-07-22T05:08:08;16.00;99.90
58339;DHT22;48278;52.704;6.536;2022-07-22T05:10:34;16.00;99.90
58339;DHT22;48278;52.704;6.536;2022-07-22T05:13:00;16.00;99.90
58339;DHT22;48278;52.704;6.536;2022-07-22T05:15:26;16.00;99.90
58339;DHT22;48278;52.704;6.536;2022-07-22T05:17:51;16.10;99.90
58339;DHT22;48278;52.704;6.536;2022-07-22T05:20:17;16.10;99.90
58339;DHT22;48278;52.704;6.536;2022-07-22T05:22:43;16.10;99.90
58339;DHT22;48278;52.704;6.536;2022-07-22T05:25:10;16.10;99.90
58339;DHT22;48278;52.704;6.536;2022-07-22T05:27:36;16.20;99.90
58339;DHT22;48278;52.704;6.536;2022-07-22T05:30:03;16.10;99.90
58339;DHT22;48278;52.704;6.536;2022-07-22T05:32:29;16.10;99.90
58339;DHT22;48278;52.704;6.536;2022-07-22T05:34:54;16.20;99.90
58339;DHT22;48278;52.704;6.536;2022-07-22T05:37:20;16.10;99.90
58339;DHT22;48278;52.704;6.536;2022-07-22T05:39:46;16.20;99.90
58339;DHT22;48278;52.704;6.536;2022-07-22T05:42:11;16.30;99.90
58339;DHT22;48278;52.704;6.536;2022-07-22T05:44:37;16.30;99.90
58339;DHT22;48278;52.704;6.536;2022-07-22T05:47:03;16.30;99.90
58339;DHT22;48278;52.704;6.536;2022-07-22T05:49:32;16.40;99.90
58339;DHT22;48278;52.704;6.536;2022-07-22T05:51:58;16.40;99.90
58339;DHT22;48278;52.704;6.536;2022-07-22T05:54:26;16.50;99.90
58339;DHT22;48278;52.704;6.536;2022-07-22T05:56:52;16.50;99.90
58339;DHT22;48278;52.704;6.536;2022-07-22T05:59:20;16.50;99.90
58339;DHT22;48278;52.704;6.536;2022-07-22T06:01:46;16.60;99.90
58339;DHT22;48278;52.704;6.536;2022-07-22T06:04:12;16.60;99.90
58339;DHT22;48278;52.704;6.536;2022-07-22T06:06:39;16.60;99.90
58339;DHT22;48278;52.704;6.536;2022-07-22T06:09:04;16.60;99.90
58339;DHT22;48278;52.704;6.536;2022-07-22T06:11:30;16.60;99.90
58339;DHT22;48278;52.704;6.536;2022-07-22T06:13:56;16.70;99.90
58339;DHT22;48278;52.704;6.536;2022-07-22T06:16:22;16.70;99.90
58339;DHT22;48278;52.704;6.536;2022-07-22T06:18:47;16.70;99.90
58339;DHT22;48278;52.704;6.536;2022-07-22T06:21:13;16.70;99.90
58339;DHT22;48278;52.704;6.536;2022-07-22T06:23:39;16.80;99.90
58339;DHT22;48278;52.704;6.536;2022-07-22T06:26:05;16.90;99.90
58339;DHT22;48278;52.704;6.536;2022-07-22T06:28:31;17.00;99.90
58339;DHT22;48278;52.704;6.536;2022-07-22T06:30:56;17.10;99.90
58339;DHT22;48278;52.704;6.536;2022-07-22T06:33:22;17.00;99.90
58339;DHT22;48278;52.704;6.536;2022-07-22T06:35:48;17.00;99.90
58339;DHT22;48278;52.704;6.536;2022-07-22T06:38:14;17.10;99.90
58339;DHT22;48278;52.704;6.536;2022-07-22T06:40:40;17.20;99.90
58339;DHT22;48278;52.704;6.536;2022-07-22T06:43:05;17.10;99.90
58339;DHT22;48278;52.704;6.536;2022-07-22T06:45:31;17.20;99.90
58339;DHT22;48278;52.704;6.536;2022-07-22T06:47:57;17.40;99.90
58339;DHT22;48278;52.704;6.536;2022-07-22T06:50:23;17.50;99.90
58339;DHT22;48278;52.704;6.536;2022-07-22T06:52:49;17.40;99.90
58339;DHT22;48278;52.704;6.536;2022-07-22T06:55:15;17.30;99.90
58339;DHT22;48278;52.704;6.536;2022-07-22T06:57:42;17.50;99.90
58339;DHT22;48278;52.704;6.536;2022-07-22T07:00:08;17.60;99.90
58339;DHT22;48278;52.704;6.536;2022-07-22T07:02:34;17.80;99.90
58339;DHT22;48278;52.704;6.536;2022-07-22T07:05:00;17.80;99.90
58339;DHT22;48278;52.704;6.536;2022-07-22T07:07:26;17.90;99.90
58339;DHT22;48278;52.704;6.536;2022-07-22T07:09:51;17.80;99.90
58339;DHT22;48278;52.704;6.536;2022-07-22T07:12:17;17.70;99.90
58339;DHT22;48278;52.704;6.536;2022-07-22T07:14:44;17.80;99.90
58339;DHT22;48278;52.704;6.536;2022-07-22T07:17:10;17.60;99.90
58339;DHT22;48278;52.704;6.536;2022-07-22T07:19:36;17.40;99.90
58339;DHT22;48278;52.704;6.536;2022-07-22T07:22:01;17.60;99.90
58339;DHT22;48278;52.704;6.536;2022-07-22T07:24:28;17.70;99.90
58339;DHT22;48278;52.704;6.536;2022-07-22T07:26:54;17.90;99.90
58339;DHT22;48278;52.704;6.536;2022-07-22T07:29:19;17.60;99.90
58339;DHT22;48278;52.704;6.536;2022-07-22T07:31:45;17.80;99.90
58339;DHT22;48278;52.704;6.536;2022-07-22T07:34:15;18.00;99.90
58339;DHT22;48278;52.704;6.536;2022-07-22T07:36:41;18.20;99.90
58339;DHT22;48278;52.704;6.536;2022-07-22T07:39:12;18.30;99.90
58339;DHT22;48278;52.704;6.536;2022-07-22T07:41:38;18.40;99.90
58339;DHT22;48278;52.704;6.536;2022-07-22T07:44:06;18.50;99.90
58339;DHT22;48278;52.704;6.536;2022-07-22T07:46:32;18.50;99.90
58339;DHT22;48278;52.704;6.536;2022-07-22T07:49:00;18.60;99.90
58339;DHT22;48278;52.704;6.536;2022-07-22T07:51:26;18.80;99.90
58339;DHT22;48278;52.704;6.536;2022-07-22T07:53:52;18.70;99.90
58339;DHT22;48278;52.704;6.536;2022-07-22T07:56:18;18.90;99.90
58339;DHT22;48278;52.704;6.536;2022-07-22T07:58:45;19.00;99.90
58339;DHT22;48278;52.704;6.536;2022-07-22T08:01:13;18.80;99.90
58339;DHT22;48278;52.704;6.536;2022-07-22T08:03:39;19.10;99.90
58339;DHT22;48278;52.704;6.536;2022-07-22T08:06:11;19.10;99.90
58339;DHT22;48278;52.704;6.536;2022-07-22T08:08:38;19.40;99.90
58339;DHT22;48278;52.704;6.536;2022-07-22T08:11:05;19.50;99.90
58339;DHT22;48278;52.704;6.536;2022-07-22T08:13:30;19.70;99.90
58339;DHT22;48278;52.704;6.536;2022-07-22T08:15:56;19.60;99.90
58339;DHT22;48278;52.704;6.536;2022-07-22T08:18:23;19.80;99.90
58339;DHT22;48278;52.704;6.536;2022-07-22T08:23:16;19.30;99.90
58339;DHT22;48278;52.704;6.536;2022-07-22T08:25:42;19.30;99.90
58339;DHT22;48278;52.704;6.536;2022-07-22T08:28:08;19.30;99.90
58339;DHT22;48278;52.704;6.536;2022-07-22T08:30:35;19.40;99.90
58339;DHT22;48278;52.704;6.536;2022-07-22T08:33:02;19.30;99.90
58339;DHT22;48278;52.704;6.536;2022-07-22T08:35:27;19.40;99.90
58339;DHT22;48278;52.704;6.536;2022-07-22T08:37:54;19.40;99.90
58339;DHT22;48278;52.704;6.536;2022-07-22T08:40:21;19.40;99.90
58339;DHT22;48278;52.704;6.536;2022-07-22T08:42:48;19.00;99.90
58339;DHT22;48278;52.704;6.536;2022-07-22T08:45:15;19.10;99.90
58339;DHT22;48278;52.704;6.536;2022-07-22T08:47:47;19.10;99.90
58339;DHT22;48278;52.704;6.536;2022-07-22T08:50:13;19.20;99.90
58339;DHT22;48278;52.704;6.536;2022-07-22T08:52:39;19.40;99.90
58339;DHT22;48278;52.704;6.536;2022-07-22T08:55:06;19.10;99.90
58339;DHT22;48278;52.704;6.536;2022-07-22T08:57:33;19.30;99.90
58339;DHT22;48278;52.704;6.536;2022-07-22T09:00:00;19.50;99.90
58339;DHT22;48278;52.704;6.536;2022-07-22T09:02:27;19.50;99.90
58339;DHT22;48278;52.704;6.536;2022-07-22T09:09:56;19.60;99.90
58339;DHT22;48278;52.704;6.536;2022-07-22T09:12:21;19.70;99.90
58339;DHT22;48278;52.704;6.536;2022-07-22T09:14:53;19.60;99.90
58339;DHT22;48278;52.704;6.536;2022-07-22T09:17:34;19.70;99.90
58339;DHT22;48278;52.704;6.536;2022-07-22T09:20:18;19.60;99.90
58339;DHT22;48278;52.704;6.536;2022-07-22T09:22:46;19.20;99.90
58339;DHT22;48278;52.704;6.536;2022-07-22T09:28:10;19.10;99.90
58339;DHT22;48278;52.704;6.536;2022-07-22T09:30:39;18.90;99.90
58339;DHT22;48278;52.704;6.536;2022-07-22T09:33:06;19.10;99.90
58339;DHT22;48278;52.704;6.536;2022-07-22T09:35:33;19.20;99.90
58339;DHT22;48278;52.704;6.536;2022-07-22T09:38:00;19.30;99.90
58339;DHT22;48278;52.704;6.536;2022-07-22T09:40:29;19.50;99.90
58339;DHT22;48278;52.704;6.536;2022-07-22T09:42:59;19.20;99.90
58339;DHT22;48278;52.704;6.536;2022-07-22T09:45:28;19.10;99.90
58339;DHT22;48278;52.704;6.536;2022-07-22T09:47:55;19.20;99.90
58339;DHT22;48278;52.704;6.536;2022-07-22T09:52:51;19.40;99.90
58339;DHT22;48278;52.704;6.536;2022-07-22T09:55:20;19.30;99.90
58339;DHT22;48278;52.704;6.536;2022-07-22T09:57:47;19.20;99.90
58339;DHT22;48278;52.704;6.536;2022-07-22T10:00:15;19.20;99.90
58339;DHT22;48278;52.704;6.536;2022-07-22T10:05:14;19.30;99.90
58339;DHT22;48278;52.704;6.536;2022-07-22T10:07:44;19.40;99.90
58339;DHT22;48278;52.704;6.536;2022-07-22T10:10:16;19.50;99.90
58339;DHT22;48278;52.704;6.536;2022-07-22T10:12:44;19.60;99.90
58339;DHT22;48278;52.704;6.536;2022-07-22T10:15:11;19.50;99.90
58339;DHT22;48278;52.704;6.536;2022-07-22T10:17:40;19.60;99.90
58339;DHT22;48278;52.704;6.536;2022-07-22T10:20:08;19.60;99.90
58339;DHT22;48278;52.704;6.536;2022-07-22T10:25:07;19.30;99.90
58339;DHT22;48278;52.704;6.536;2022-07-22T10:30:34;19.50;99.90
58339;DHT22;48278;52.704;6.536;2022-07-22T10:33:07;19.80;99.90
58339;DHT22;48278;52.704;6.536;2022-07-22T10:35:57;19.90;99.90
58339;DHT22;48278;52.704;6.536;2022-07-22T10:38:24;20.10;99.90
58339;DHT22;48278;52.704;6.536;2022-07-22T10:41:05;20.50;99.90
58339;DHT22;48278;52.704;6.536;2022-07-22T10:46:08;20.50;99.90
58339;DHT22;48278;52.704;6.536;2022-07-22T10:53:56;21.30;99.90
58339;DHT22;48278;52.704;6.536;2022-07-22T10:59:14;21.80;99.90
58339;DHT22;48278;52.704;6.536;2022-07-22T11:04:16;21.00;99.90
58339;DHT22;48278;52.704;6.536;2022-07-22T11:06:43;20.90;99.90
58339;DHT22;48278;52.704;6.536;2022-07-22T11:09:10;21.30;99.90
58339;DHT22;48278;52.704;6.536;2022-07-22T11:11:40;21.40;99.90
58339;DHT22;48278;52.704;6.536;2022-07-22T11:14:17;21.20;99.90
58339;DHT22;48278;52.704;6.536;2022-07-22T11:16:45;20.80;99.90
58339;DHT22;48278;52.704;6.536;2022-07-22T11:19:11;20.90;99.90
58339;DHT22;48278;52.704;6.536;2022-07-22T11:21:37;20.60;99.90
58339;DHT22;48278;52.704;6.536;2022-07-22T11:24:05;20.20;99.90
58339;DHT22;48278;52.704;6.536;2022-07-22T11:26:39;20.40;99.90
58339;DHT22;48278;52.704;6.536;2022-07-22T11:29:06;19.60;99.90
58339;DHT22;48278;52.704;6.536;2022-07-22T11:31:32;19.50;99.90
58339;DHT22;48278;52.704;6.536;2022-07-22T11:34:13;19.80;99.90
58339;DHT22;48278;52.704;6.536;2022-07-22T11:36:41;19.80;99.90
58339;DHT22;48278;52.704;6.536;2022-07-22T11:39:09;19.50;99.90
58339;DHT22;48278;52.704;6.536;2022-07-22T11:41:36;19.40;99.90
58339;DHT22;48278;52.704;6.536;2022-07-22T11:44:02;19.30;99.90
58339;DHT22;48278;52.704;6.536;2022-07-22T11:46:37;19.50;99.90
58339;DHT22;48278;52.704;6.536;2022-07-22T11:49:04;19.40;99.90
58339;DHT22;48278;52.704;6.536;2022-07-22T11:51:32;19.40;99.90
58339;DHT22;48278;52.704;6.536;2022-07-22T11:53:58;19.50;99.90
58339;DHT22;48278;52.704;6.536;2022-07-22T11:56:26;19.20;99.90
58339;DHT22;48278;52.704;6.536;2022-07-22T11:58:52;19.00;99.90
58339;DHT22;48278;52.704;6.536;2022-07-22T12:01:20;19.20;99.90
58339;DHT22;48278;52.704;6.536;2022-07-22T12:03:54;19.30;99.90
58339;DHT22;48278;52.704;6.536;2022-07-22T12:06:22;19.30;99.90
58339;DHT22;48278;52.704;6.536;2022-07-22T12:08:53;19.20;99.90
58339;DHT22;48278;52.704;6.536;2022-07-22T12:11:21;19.30;99.90
58339;DHT22;48278;52.704;6.536;2022-07-22T12:13:49;19.40;99.90
58339;DHT22;48278;52.704;6.536;2022-07-22T12:16:26;19.50;99.90
58339;DHT22;48278;52.704;6.536;2022-07-22T12:19:19;19.60;99.90
58339;DHT22;48278;52.704;6.536;2022-07-22T12:22:06;19.80;99.90
58339;DHT22;48278;52.704;6.536;2022-07-22T12:24:33;20.00;99.90
58339;DHT22;48278;52.704;6.536;2022-07-22T12:32:07;20.60;99.90
58339;DHT22;48278;52.704;6.536;2022-07-22T12:40:05;20.90;99.90
58339;DHT22;48278;52.704;6.536;2022-07-22T12:42:36;20.90;99.90
58339;DHT22;48278;52.704;6.536;2022-07-22T12:45:09;21.10;99.90
58339;DHT22;48278;52.704;6.536;2022-07-22T12:53:06;21.20;99.90
58339;DHT22;48278;52.704;6.536;2022-07-22T12:55:40;20.50;99.90
58339;DHT22;48278;52.704;6.536;2022-07-22T12:58:07;20.90;99.90
58339;DHT22;48278;52.704;6.536;2022-07-22T13:00:37;21.00;99.90
58339;DHT22;48278;52.704;6.536;2022-07-22T13:03:03;21.00;99.90
58339;DHT22;48278;52.704;6.536;2022-07-22T13:05:29;21.00;99.90
58339;DHT22;48278;52.704;6.536;2022-07-22T13:07:55;21.00;99.90
58339;DHT22;48278;52.704;6.536;2022-07-22T13:10:22;21.20;99.90
58339;DHT22;48278;52.704;6.536;2022-07-22T13:12:49;21.10;99.90
58339;DHT22;48278;52.704;6.536;2022-07-22T13:15:16;21.20;99.90
58339;DHT22;48278;52.704;6.536;2022-07-22T13:17:43;21.30;99.90
58339;DHT22;48278;52.704;6.536;2022-07-22T13:20:11;20.90;99.90
58339;DHT22;48278;52.704;6.536;2022-07-22T13:22:38;20.70;99.90
58339;DHT22;48278;52.704;6.536;2022-07-22T13:25:05;20.30;99.90
58339;DHT22;48278;52.704;6.536;2022-07-22T13:27:30;20.40;99.90
58339;DHT22;48278;52.704;6.536;2022-07-22T13:29:56;20.60;99.90
58339;DHT22;48278;52.704;6.536;2022-07-22T13:32:22;20.80;99.90
58339;DHT22;48278;52.704;6.536;2022-07-22T13:34:49;20.90;99.90
58339;DHT22;48278;52.704;6.536;2022-07-22T13:37:15;20.50;99.90
58339;DHT22;48278;52.704;6.536;2022-07-22T13:39:41;20.30;99.90
58339;DHT22;48278;52.704;6.536;2022-07-22T13:42:09;19.90;99.90
58339;DHT22;48278;52.704;6.536;2022-07-22T13:44:34;19.80;99.90
58339;DHT22;48278;52.704;6.536;2022-07-22T13:47:03;20.10;99.90
58339;DHT22;48278;52.704;6.536;2022-07-22T13:49:29;20.50;99.90
58339;DHT22;48278;52.704;6.536;2022-07-22T13:51:55;20.20;99.90
58339;DHT22;48278;52.704;6.536;2022-07-22T13:54:20;20.60;99.90
58339;DHT22;48278;52.704;6.536;2022-07-22T13:56:46;20.70;99.90
58339;DHT22;48278;52.704;6.536;2022-07-22T13:59:14;20.70;99.90
58339;DHT22;48278;52.704;6.536;2022-07-22T14:01:40;20.30;99.10
58339;DHT22;48278;52.704;6.536;2022-07-22T14:04:06;20.30;99.90
58339;DHT22;48278;52.704;6.536;2022-07-22T14:06:32;20.50;99.90
58339;DHT22;48278;52.704;6.536;2022-07-22T14:08:58;20.30;98.60
58339;DHT22;48278;52.704;6.536;2022-07-22T14:11:24;20.70;99.00
58339;DHT22;48278;52.704;6.536;2022-07-22T14:13:50;20.60;98.60
58339;DHT22;48278;52.704;6.536;2022-07-22T14:16:15;20.90;98.50
58339;DHT22;48278;52.704;6.536;2022-07-22T14:21:26;20.70;98.20
58339;DHT22;48278;52.704;6.536;2022-07-22T14:23:52;20.20;98.30
58339;DHT22;48278;52.704;6.536;2022-07-22T14:26:18;20.40;98.00
58339;DHT22;48278;52.704;6.536;2022-07-22T14:28:43;20.50;98.80
58339;DHT22;48278;52.704;6.536;2022-07-22T14:31:09;20.80;98.30
58339;DHT22;48278;52.704;6.536;2022-07-22T14:33:35;20.90;97.90
58339;DHT22;48278;52.704;6.536;2022-07-22T14:36:01;21.00;98.30
58339;DHT22;48278;52.704;6.536;2022-07-22T14:38:26;20.70;98.10
58339;DHT22;48278;52.704;6.536;2022-07-22T14:40:52;20.20;98.10
58339;DHT22;48278;52.704;6.536;2022-07-22T14:43:18;20.30;98.70
58339;DHT22;48278;52.704;6.536;2022-07-22T14:45:44;20.20;99.00
58339;DHT22;48278;52.704;6.536;2022-07-22T14:48:09;20.20;98.80
58339;DHT22;48278;52.704;6.536;2022-07-22T14:50:35;20.60;99.00
58339;DHT22;48278;52.704;6.536;2022-07-22T14:53:01;20.70;98.80
58339;DHT22;48278;52.704;6.536;2022-07-22T14:55:28;20.80;98.60
58339;DHT22;48278;52.704;6.536;2022-07-22T14:57:54;20.40;97.70
58339;DHT22;48278;52.704;6.536;2022-07-22T15:00:19;20.60;98.60
58339;DHT22;48278;52.704;6.536;2022-07-22T15:02:45;20.10;98.70
58339;DHT22;48278;52.704;6.536;2022-07-22T15:05:11;20.20;99.20
58339;DHT22;48278;52.704;6.536;2022-07-22T15:07:38;20.00;99.30
58339;DHT22;48278;52.704;6.536;2022-07-22T15:10:04;20.00;99.30
58339;DHT22;48278;52.704;6.536;2022-07-22T15:12:29;19.90;99.20
58339;DHT22;48278;52.704;6.536;2022-07-22T15:14:55;19.80;99.60
58339;DHT22;48278;52.704;6.536;2022-07-22T15:17:21;19.80;99.90
58339;DHT22;48278;52.704;6.536;2022-07-22T15:19:47;19.70;99.90
58339;DHT22;48278;52.704;6.536;2022-07-22T15:22:12;19.30;99.90
58339;DHT22;48278;52.704;6.536;2022-07-22T15:24:38;19.30;99.90
58339;DHT22;48278;52.704;6.536;2022-07-22T15:27:04;19.20;99.90
58339;DHT22;48278;52.704;6.536;2022-07-22T15:29:30;19.30;99.90
58339;DHT22;48278;52.704;6.536;2022-07-22T15:31:55;19.30;99.90
58339;DHT22;48278;52.704;6.536;2022-07-22T15:34:21;19.40;99.90
58339;DHT22;48278;52.704;6.536;2022-07-22T15:36:47;19.20;99.90
58339;DHT22;48278;52.704;6.536;2022-07-22T15:39:13;19.00;99.90
58339;DHT22;48278;52.704;6.536;2022-07-22T15:41:40;19.00;99.90
58339;DHT22;48278;52.704;6.536;2022-07-22T15:44:07;18.90;99.90
58339;DHT22;48278;52.704;6.536;2022-07-22T15:46:39;18.90;99.90
58339;DHT22;48278;52.704;6.536;2022-07-22T15:49:05;18.90;99.90
58339;DHT22;48278;52.704;6.536;2022-07-22T15:51:30;19.00;99.90
58339;DHT22;48278;52.704;6.536;2022-07-22T15:53:56;19.10;99.90
58339;DHT22;48278;52.704;6.536;2022-07-22T15:56:22;19.30;99.90
58339;DHT22;48278;52.704;6.536;2022-07-22T15:58:48;19.50;99.90
58339;DHT22;48278;52.704;6.536;2022-07-22T16:01:32;19.40;99.90
58339;DHT22;48278;52.704;6.536;2022-07-22T16:03:58;19.80;99.90
58339;DHT22;48278;52.704;6.536;2022-07-22T16:06:24;20.00;99.90
58339;DHT22;48278;52.704;6.536;2022-07-22T16:08:50;20.20;99.90
58339;DHT22;48278;52.704;6.536;2022-07-22T16:11:16;20.20;99.90
58339;DHT22;48278;52.704;6.536;2022-07-22T16:13:42;20.20;99.90
58339;DHT22;48278;52.704;6.536;2022-07-22T16:16:07;19.70;99.90
58339;DHT22;48278;52.704;6.536;2022-07-22T16:18:33;20.00;99.90
58339;DHT22;48278;52.704;6.536;2022-07-22T16:20:59;19.80;99.90